createdAt,value
2018-11-05T00:00:38.020Z,100571.78
2018-11-05T00:03:08.370Z,100570.11
2018-11-05T00:05:38.480Z,100572.98
2018-11-05T00:08:08.524Z,100571.48
2018-11-05T00:10:38.738Z,100577.28
2018-11-05T00:13:08.701Z,100571.42
2018-11-05T00:15:38.743Z,100566.45
2018-11-05T00:18:08.798Z,100562.64
2018-11-05T00:20:38.645Z,100562.25
2018-11-05T00:23:08.613Z,100562.15
2018-11-05T00:25:38.656Z,100563.02
2018-11-05T00:28:08.579Z,100555.56
2018-11-05T00:30:38.668Z,100551.77
2018-11-05T00:33:08.495Z,100554.53
2018-11-05T00:35:38.562Z,100549.41
2018-11-05T00:38:08.627Z,100547.34
2018-11-05T00:40:38.496Z,100548.88
2018-11-05T00:43:08.563Z,100555.73
2018-11-05T00:45:38.573Z,100547.88
2018-11-05T00:48:08.609Z,100545.02
2018-11-05T00:50:38.545Z,100540.56
2018-11-05T00:53:08.557Z,100537.91
2018-11-05T00:55:38.800Z,100537.80
2018-11-05T00:58:08.581Z,100537.88
2018-11-05T01:00:38.608Z,100534.72
2018-11-05T01:03:08.539Z,100526.80
2018-11-05T01:05:38.530Z,100524.71
2018-11-05T01:08:08.577Z,100520.73
2018-11-05T01:10:38.673Z,100518.59
2018-11-05T01:13:08.542Z,100518.55
2018-11-05T01:15:38.556Z,100520.38
2018-11-05T01:18:08.593Z,100527.66
2018-11-05T01:20:38.570Z,100517.05
2018-11-05T01:23:08.576Z,100519.23
2018-11-05T01:25:38.674Z,100517.34
2018-11-05T01:28:08.569Z,100516.36
2018-11-05T01:30:38.625Z,100514.34
2018-11-05T01:33:08.567Z,100504.77
2018-11-05T01:35:38.579Z,100508.79
2018-11-05T01:38:08.833Z,100513.84
2018-11-05T01:40:38.604Z,100511.39
2018-11-05T01:43:08.517Z,100502.75
2018-11-05T01:45:38.617Z,100505.20
2018-11-05T01:48:08.457Z,100503.18
2018-11-05T01:50:38.524Z,100497.36
2018-11-05T01:53:08.498Z,100495.35
2018-11-05T01:55:38.670Z,100504.00
2018-11-05T01:58:09.405Z,100486.53
2018-11-05T02:00:39.452Z,100496.94
2018-11-05T02:03:09.568Z,100494.84
2018-11-05T02:05:39.598Z,100494.49
2018-11-05T02:08:09.497Z,100488.84
2018-11-05T02:10:39.750Z,100477.13
2018-11-05T02:13:09.740Z,100503.61
2018-11-05T02:15:39.722Z,100502.28
2018-11-05T02:18:09.564Z,100506.27
2018-11-05T02:20:39.495Z,100505.88
2018-11-05T02:23:09.552Z,100502.20
2018-11-05T02:25:39.655Z,100504.52
2018-11-05T02:28:09.764Z,100503.36
2018-11-05T02:30:39.608Z,100501.52
2018-11-05T02:33:09.414Z,100507.59
2018-11-05T02:35:39.526Z,100501.08
2018-11-05T02:38:09.535Z,100494.54
2018-11-05T02:40:39.599Z,100482.98
2018-11-05T02:43:09.578Z,100492.06
2018-11-05T02:45:39.513Z,100492.66
2018-11-05T02:48:09.562Z,100491.67
2018-11-05T02:50:39.427Z,100488.28
2018-11-05T02:53:09.653Z,100491.58
2018-11-05T02:55:39.602Z,100484.60
2018-11-05T02:58:09.429Z,100481.56
2018-11-05T03:00:39.620Z,100477.16
2018-11-05T03:03:09.454Z,100480.08
2018-11-05T03:05:39.552Z,100467.61
2018-11-05T03:08:09.490Z,100478.61
2018-11-05T03:10:39.519Z,100484.72
2018-11-05T03:13:09.665Z,100475.31
2018-11-05T03:15:39.834Z,100472.05
2018-11-05T03:18:09.813Z,100463.04
2018-11-05T03:20:39.569Z,100465.25
2018-11-05T03:23:09.389Z,100462.21
2018-11-05T03:25:39.981Z,100450.14
2018-11-05T03:28:09.713Z,100456.25
2018-11-05T03:30:39.625Z,100464.04
2018-11-05T03:33:09.549Z,100454.31
2018-11-05T03:35:39.771Z,100458.82
2018-11-05T03:38:09.706Z,100459.86
2018-11-05T03:40:39.622Z,100460.41
2018-11-05T03:43:09.877Z,100455.83
2018-11-05T03:45:39.707Z,100451.40
2018-11-05T03:48:09.909Z,100423.97
2018-11-05T03:50:39.936Z,100450.70
2018-11-05T03:53:10.090Z,100457.68
2018-11-05T03:55:40.094Z,100461.94
2018-11-05T03:58:09.988Z,100462.69
2018-11-05T04:00:40.521Z,100459.62
2018-11-05T04:03:11.161Z,100461.36
2018-11-05T04:05:42.109Z,100457.78
2018-11-05T04:08:12.942Z,100457.85
2018-11-05T04:10:44.468Z,100451.45
2018-11-05T04:13:14.971Z,100425.49
2018-11-05T04:15:46.555Z,100444.88
2018-11-05T04:18:17.403Z,100448.92
2018-11-05T04:20:48.425Z,100447.66
2018-11-05T04:23:19.014Z,100439.71
2018-11-05T04:25:50.359Z,100440.40
2018-11-05T04:28:21.245Z,100439.18
2018-11-05T04:30:52.082Z,100441.50
2018-11-05T04:33:23.310Z,100429.36
2018-11-05T04:35:54.005Z,100434.88
2018-11-05T04:38:25.184Z,100434.88
2018-11-05T04:40:56.403Z,100435.62
2018-11-05T04:43:26.909Z,100440.34
2018-11-05T04:45:59.197Z,100431.70
2018-11-05T04:48:29.624Z,100433.25
2018-11-05T04:51:00.913Z,100433.88
2018-11-05T04:53:31.330Z,100437.98
2018-11-05T04:56:02.186Z,100435.28
2018-11-05T04:58:32.984Z,100431.94
2018-11-05T05:01:04.771Z,100437.52
2018-11-05T05:03:35.251Z,100433.90
2018-11-05T05:06:06.442Z,100432.86
2018-11-05T05:08:37.022Z,100440.12
2018-11-05T05:11:08.569Z,100436.14
2018-11-05T05:13:39.154Z,100430.50
2018-11-05T05:16:11.361Z,100433.56
2018-11-05T05:18:42.703Z,100431.02
2018-11-05T05:21:12.650Z,100434.36
2018-11-05T05:23:43.129Z,100438.27
2018-11-05T05:26:14.473Z,100442.94
2018-11-05T05:28:44.991Z,100440.69
2018-11-05T05:31:16.444Z,100438.05
2018-11-05T05:33:46.949Z,100434.20
2018-11-05T05:36:18.422Z,100435.39
2018-11-05T05:38:49.037Z,100436.50
2018-11-05T05:41:20.665Z,100438.33
2018-11-05T05:43:51.284Z,100428.84
2018-11-05T05:46:22.202Z,100436.31
2018-11-05T05:48:53.007Z,100434.02
2018-11-05T05:51:24.433Z,100444.73
2018-11-05T05:53:55.066Z,100444.04
2018-11-05T05:56:26.731Z,100443.56
2018-11-05T05:58:57.256Z,100440.98
2018-11-05T06:01:28.228Z,100448.58
2018-11-05T06:03:59.070Z,100448.29
2018-11-05T06:06:30.830Z,100441.80
2018-11-05T06:09:01.279Z,100448.23
2018-11-05T06:11:32.387Z,100448.41
2018-11-05T06:14:03.085Z,100450.42
2018-11-05T06:16:34.799Z,100452.95
2018-11-05T06:19:05.796Z,100454.97
2018-11-05T06:21:36.695Z,100451.28
2018-11-05T06:24:07.354Z,100457.33
2018-11-05T06:26:38.342Z,100450.59
2018-11-05T06:29:09.110Z,100450.66
2018-11-05T06:31:40.187Z,100454.34
2018-11-05T06:34:11.120Z,100449.96
2018-11-05T06:36:42.523Z,100458.16
2018-11-05T06:39:14.400Z,100462.70
2018-11-05T06:41:44.438Z,100462.28
2018-11-05T06:44:15.245Z,100455.45
2018-11-05T06:46:46.371Z,100457.56
2018-11-05T06:49:17.017Z,100456.02
2018-11-05T06:51:48.543Z,100456.65
2018-11-05T06:54:19.378Z,100460.39
2018-11-05T06:56:50.221Z,100460.27
2018-11-05T06:59:20.990Z,100465.13
2018-11-05T07:01:52.470Z,100463.55
2018-11-05T07:04:23.051Z,100473.45
2018-11-05T07:06:54.461Z,100479.06
2018-11-05T07:09:25.024Z,100479.84
2018-11-05T07:11:56.597Z,100481.23
2018-11-05T07:14:27.246Z,100476.34
2018-11-05T07:16:58.314Z,100481.35
2018-11-05T07:19:29.094Z,100477.36
2018-11-05T07:22:00.289Z,100479.56
2018-11-05T07:24:31.031Z,100481.41
2018-11-05T07:27:02.437Z,100480.40
2018-11-05T07:29:32.981Z,100481.41
2018-11-05T07:32:04.629Z,100478.09
2018-11-05T07:34:35.356Z,100477.45
2018-11-05T07:37:06.748Z,100472.62
2018-11-05T07:39:37.230Z,100473.61
2018-11-05T07:42:08.097Z,100476.95
2018-11-05T07:44:39.371Z,100474.08
2018-11-05T07:47:10.304Z,100475.02
2018-11-05T07:49:41.097Z,100470.64
2018-11-05T07:52:12.469Z,100475.18
2018-11-05T07:54:43.038Z,100473.92
2018-11-05T07:57:15.537Z,100474.67
2018-11-05T07:59:45.330Z,100477.27
2018-11-05T08:02:16.246Z,100477.63
2018-11-05T08:04:46.991Z,100479.88
2018-11-05T08:07:18.433Z,100478.92
2018-11-05T08:09:49.004Z,100477.79
2018-11-05T08:12:20.443Z,100485.52
2018-11-05T08:14:51.165Z,100478.56
2018-11-05T08:17:22.128Z,100482.62
2018-11-05T08:19:53.483Z,100483.84
2018-11-05T08:22:24.139Z,100488.30
2018-11-05T08:24:55.106Z,100487.31
2018-11-05T08:27:26.039Z,100479.27
2018-11-05T08:29:57.371Z,100482.11
2018-11-05T08:32:28.293Z,100486.12
2018-11-05T08:34:58.995Z,100485.01
2018-11-05T08:37:30.516Z,100485.19
2018-11-05T08:40:01.287Z,100484.71
2018-11-05T08:42:32.241Z,100485.91
2018-11-05T08:45:03.090Z,100480.77
2018-11-05T08:47:34.538Z,100478.34
2018-11-05T08:50:05.284Z,100479.33
2018-11-05T08:52:36.183Z,100475.70
2018-11-05T08:55:08.589Z,100469.73
2018-11-05T08:57:38.629Z,100476.88
2018-11-05T09:00:20.435Z,100474.23
2018-11-05T09:02:50.987Z,100475.59
2018-11-05T09:05:20.911Z,100477.96
2018-11-05T09:07:51.783Z,100473.50
2018-11-05T09:10:21.868Z,100472.19
2018-11-05T09:12:52.142Z,100467.86
2018-11-05T09:15:23.062Z,100476.84
2018-11-05T09:17:53.260Z,100466.87
2018-11-05T09:20:23.193Z,100470.20
2018-11-05T09:22:53.849Z,100472.20
2018-11-05T09:25:23.909Z,100443.56
2018-11-05T09:27:53.842Z,100466.22
2018-11-05T09:30:24.946Z,100472.39
2018-11-05T09:32:54.767Z,100464.40
2018-11-05T09:35:25.165Z,100468.06
2018-11-05T09:37:55.086Z,100466.53
2018-11-05T09:40:25.878Z,100456.20
2018-11-05T09:42:56.585Z,100459.70
2018-11-05T09:45:28.690Z,100467.19
2018-11-05T09:47:58.623Z,100464.52
2018-11-05T09:50:29.285Z,100463.49
2018-11-05T09:53:00.252Z,100462.98
2018-11-05T09:55:31.034Z,100463.84
2018-11-05T09:58:02.198Z,100457.31
2018-11-05T10:00:33.024Z,100451.28
2018-11-05T10:03:09.622Z,100446.44
2018-11-05T10:05:39.956Z,100443.22
2018-11-05T10:08:09.931Z,100433.39
2018-11-05T10:10:40.793Z,100448.67
2018-11-05T10:13:10.591Z,100442.95
2018-11-05T10:15:41.110Z,100443.03
2018-11-05T10:18:10.968Z,100446.16
2018-11-05T10:20:41.713Z,100435.42
2018-11-05T10:23:12.301Z,100436.99
2018-11-05T10:25:43.157Z,100430.26
2018-11-05T10:28:14.341Z,100425.20
2018-11-05T10:30:45.282Z,100434.82
2018-11-05T10:33:16.079Z,100426.89
2018-11-05T10:35:52.415Z,100423.34
2018-11-05T10:38:22.642Z,100422.65
2018-11-05T10:40:52.662Z,100431.28
2018-11-05T10:43:22.621Z,100421.02
2018-11-05T10:45:52.924Z,100416.05
2018-11-05T10:48:22.896Z,100424.02
2018-11-05T10:50:53.399Z,100416.62
2018-11-05T10:53:24.620Z,100412.49
2018-11-05T10:55:55.157Z,100420.88
2018-11-05T10:58:25.333Z,100411.55
2018-11-05T11:01:01.264Z,100408.95
2018-11-05T11:03:34.546Z,100405.62
2018-11-05T11:06:05.976Z,100397.27
2018-11-05T11:08:36.058Z,100395.99
2018-11-05T11:11:06.253Z,100388.34
2018-11-05T11:13:36.155Z,100394.72
2018-11-05T11:16:06.098Z,100393.80
2018-11-05T11:18:36.132Z,100405.41
2018-11-05T11:21:07.026Z,100393.95
2018-11-05T11:23:36.782Z,100398.17
2018-11-05T11:26:06.869Z,100392.20
2018-11-05T11:28:37.425Z,100386.89
2018-11-05T11:31:08.433Z,100376.05
2018-11-05T11:33:39.074Z,100370.77
2018-11-05T11:36:10.315Z,100372.73
2018-11-05T11:38:41.278Z,100369.23
2018-11-05T11:41:12.025Z,100367.13
2018-11-05T11:43:44.523Z,100359.91
2018-11-05T11:46:14.486Z,100356.48
2018-11-05T11:48:45.227Z,100356.48
2018-11-05T11:51:16.023Z,100357.44
2018-11-05T11:53:47.364Z,100355.78
2018-11-05T11:56:18.272Z,100349.82
2018-11-05T11:58:49.082Z,100353.84
2018-11-05T12:01:20.114Z,100341.75
2018-11-05T12:03:51.456Z,100337.41
2018-11-05T12:06:22.021Z,100337.09
2018-11-05T12:08:53.397Z,100336.50
2018-11-05T12:11:24.046Z,100338.94
2018-11-05T12:13:55.685Z,100332.66
2018-11-05T12:16:26.550Z,100335.72
2018-11-05T12:18:57.170Z,100328.37
2018-11-05T12:21:28.094Z,100335.58
2018-11-05T12:23:59.108Z,100328.70
2018-11-05T12:26:30.098Z,100325.63
2018-11-05T12:29:01.144Z,100327.08
2018-11-05T12:31:32.223Z,100321.87
2018-11-05T12:34:03.168Z,100319.88
2018-11-05T12:36:34.145Z,100324.83
2018-11-05T12:39:06.354Z,100318.68
2018-11-05T12:41:36.478Z,100318.99
2018-11-05T12:44:09.292Z,100304.89
2018-11-05T12:46:43.690Z,100311.26
2018-11-05T12:49:13.603Z,100310.38
2018-11-05T12:51:43.442Z,100293.83
2018-11-05T12:54:13.314Z,100305.37
2018-11-05T12:56:43.227Z,100299.30
2018-11-05T12:59:13.013Z,100294.42
2018-11-05T13:01:44.670Z,100296.20
2018-11-05T13:04:15.215Z,100279.91
2018-11-05T13:06:46.307Z,100283.35
2018-11-05T13:09:17.007Z,100281.60
2018-11-05T13:11:48.439Z,100276.04
2018-11-05T13:14:19.089Z,100281.03
2018-11-05T13:16:50.646Z,100287.33
2018-11-05T13:19:21.133Z,100264.91
2018-11-05T13:21:52.290Z,100284.91
2018-11-05T13:24:23.010Z,100278.17
2018-11-05T13:26:54.422Z,100269.38
2018-11-05T13:29:24.948Z,100273.56
2018-11-05T13:31:56.496Z,100273.86
2018-11-05T13:34:27.103Z,100261.80
2018-11-05T13:36:58.986Z,100271.69
2018-11-05T13:39:29.003Z,100269.89
2018-11-05T13:42:01.137Z,100269.14
2018-11-05T13:44:32.546Z,100272.83
2018-11-05T13:47:03.379Z,100265.81
2018-11-05T13:49:33.692Z,100263.30
2018-11-05T13:52:04.382Z,100260.64
2018-11-05T13:54:35.305Z,100257.66
2018-11-05T13:57:06.729Z,100256.48
2018-11-05T13:59:37.253Z,100261.05
2018-11-05T14:02:08.232Z,100261.09
2018-11-05T14:04:39.065Z,100259.55
2018-11-05T14:07:10.338Z,100256.55
2018-11-05T14:09:41.445Z,100252.47
2018-11-05T14:12:12.156Z,100256.38
2018-11-05T14:14:43.393Z,100262.83
2018-11-05T14:17:14.126Z,100255.31
2018-11-05T14:19:45.401Z,100258.83
2018-11-05T14:22:16.128Z,100251.11
2018-11-05T14:24:47.104Z,100256.40
2018-11-05T14:27:18.067Z,100251.22
2018-11-05T14:29:49.667Z,100257.16
2018-11-05T14:32:20.305Z,100259.71
2018-11-05T14:34:51.048Z,100255.31
2018-11-05T14:37:22.571Z,100251.41
2018-11-05T14:39:53.360Z,100255.13
2018-11-05T14:42:24.365Z,100258.62
2018-11-05T14:44:55.032Z,100256.70
2018-11-05T14:47:26.525Z,100252.37
2018-11-05T14:49:57.140Z,100261.16
2018-11-05T14:52:28.182Z,100263.27
2018-11-05T14:54:58.132Z,100255.24
2018-11-05T14:57:29.654Z,100249.74
2018-11-05T15:00:00.365Z,100255.34
2018-11-05T15:02:36.061Z,100257.86
2018-11-05T15:05:06.549Z,100251.67
2018-11-05T15:07:37.087Z,100254.30
2018-11-05T15:10:09.073Z,100248.52
2018-11-05T15:12:39.042Z,100251.50
2018-11-05T15:15:10.395Z,100251.03
2018-11-05T15:17:41.599Z,100254.08
2018-11-05T15:20:13.931Z,100249.52
2018-11-05T15:22:44.178Z,100243.74
2018-11-05T15:25:14.924Z,100244.33
2018-11-05T15:27:45.089Z,100250.16
2018-11-05T15:30:17.893Z,100250.30
2018-11-05T15:32:47.817Z,100254.78
2018-11-05T15:35:18.018Z,100240.05
2018-11-05T15:37:47.962Z,100258.98
2018-11-05T15:40:19.280Z,100245.79
2018-11-05T15:42:49.479Z,100249.80
2018-11-05T15:45:21.181Z,100250.94
2018-11-05T15:47:51.284Z,100244.27
2018-11-05T15:50:22.158Z,100242.88
2018-11-05T15:52:52.254Z,100245.18
2018-11-05T15:55:22.461Z,100246.16
2018-11-05T15:57:53.048Z,100245.63
2018-11-05T16:00:25.360Z,100247.77
2018-11-05T16:02:56.738Z,100209.91
2018-11-05T16:05:26.787Z,100249.62
2018-11-05T16:07:57.244Z,100253.69
2018-11-05T16:10:28.140Z,100255.43
2018-11-05T16:12:58.966Z,100254.66
2018-11-05T16:15:30.356Z,100255.65
2018-11-05T16:18:01.624Z,100256.28
2018-11-05T16:20:32.177Z,100267.98
2018-11-05T16:23:03.082Z,100272.36
2018-11-05T16:25:34.413Z,100267.06
2018-11-05T16:28:05.076Z,100264.39
2018-11-05T16:30:36.710Z,100258.47
2018-11-05T16:33:07.630Z,100257.86
2018-11-05T16:35:38.415Z,100257.67
2018-11-05T16:38:09.038Z,100252.40
2018-11-05T16:40:40.518Z,100255.62
2018-11-05T16:43:11.328Z,100261.00
2018-11-05T16:45:42.294Z,100250.00
2018-11-05T16:48:12.956Z,100251.98
2018-11-05T16:50:44.457Z,100252.30
2018-11-05T16:53:14.965Z,100253.97
2018-11-05T16:55:46.409Z,100257.75
2018-11-05T16:58:16.981Z,100257.23
2018-11-05T17:00:48.482Z,100257.03
2018-11-05T17:03:19.093Z,100253.80
2018-11-05T17:05:50.189Z,100257.61
2018-11-05T17:08:21.226Z,100260.94
2018-11-05T17:10:52.120Z,100260.13
2018-11-05T17:13:23.396Z,100255.05
2018-11-05T17:15:54.207Z,100245.45
2018-11-05T17:18:24.982Z,100254.23
2018-11-05T17:20:55.560Z,100258.98
2018-11-05T17:23:26.256Z,100258.56
2018-11-05T17:25:57.145Z,100259.21
2018-11-05T17:28:28.274Z,100256.33
2018-11-05T17:30:59.050Z,100255.03
2018-11-05T17:33:30.331Z,100257.64
2018-11-05T17:36:01.077Z,100264.66
2018-11-05T17:38:32.256Z,100265.86
2018-11-05T17:41:03.081Z,100254.23
2018-11-05T17:43:34.268Z,100264.47
2018-11-05T17:46:05.123Z,100262.95
2018-11-05T17:48:35.954Z,100262.11
2018-11-05T17:51:08.321Z,100268.14
2018-11-05T17:53:38.040Z,100254.11
2018-11-05T17:56:09.417Z,100254.44
2018-11-05T17:58:39.905Z,100247.45
2018-11-05T18:01:11.425Z,100257.30
2018-11-05T18:03:42.031Z,100260.61
2018-11-05T18:06:13.092Z,100256.77
2018-11-05T18:08:44.351Z,100257.80
2018-11-05T18:11:15.225Z,100275.51
2018-11-05T18:13:46.054Z,100271.52
2018-11-05T18:16:17.501Z,100271.52
2018-11-05T18:18:48.212Z,100262.22
2018-11-05T18:21:19.367Z,100274.03
2018-11-05T18:23:49.977Z,100270.05
2018-11-05T18:26:21.757Z,100270.89
2018-11-05T18:28:52.185Z,100261.86
2018-11-05T18:31:23.126Z,100263.52
2018-11-05T18:33:53.973Z,100271.55
2018-11-05T18:36:25.397Z,100269.25
2018-11-05T18:38:56.275Z,100269.20
2018-11-05T18:41:27.105Z,100268.98
2018-11-05T18:43:58.338Z,100263.47
2018-11-05T18:46:29.416Z,100263.95
2018-11-05T18:49:00.033Z,100263.60
2018-11-05T18:51:39.430Z,100266.59
2018-11-05T18:54:10.250Z,100261.78
2018-11-05T18:56:40.818Z,100264.80
2018-11-05T18:59:10.705Z,100262.59
2018-11-05T19:01:40.778Z,100266.59
2018-11-05T19:04:10.784Z,100266.27
2018-11-05T19:06:40.910Z,100271.95
2018-11-05T19:09:10.272Z,100252.31
2018-11-05T19:11:40.007Z,100252.28
2018-11-05T19:14:10.227Z,100253.80
2018-11-05T19:16:41.349Z,100252.16
2018-11-05T19:19:12.158Z,100250.30
2018-11-05T19:21:43.061Z,100236.45
2018-11-05T19:24:14.441Z,100248.47
2018-11-05T19:26:45.063Z,100250.63
2018-11-05T19:29:16.300Z,100249.98
2018-11-05T19:31:46.993Z,100252.61
2018-11-05T19:34:18.300Z,100247.13
2018-11-05T19:36:49.393Z,100249.25
2018-11-05T19:39:20.044Z,100250.60
2018-11-05T19:41:51.501Z,100248.25
2018-11-05T19:44:22.110Z,100239.28
2018-11-05T19:46:52.013Z,100246.61
2018-11-05T19:49:23.379Z,100247.28
2018-11-05T19:51:53.948Z,100255.30
2018-11-05T19:54:25.549Z,100253.98
2018-11-05T19:56:56.041Z,100260.31
2018-11-05T19:59:27.354Z,100263.31
2018-11-05T20:01:57.929Z,100261.36
2018-11-05T20:04:29.416Z,100255.03
2018-11-05T20:06:59.966Z,100251.66
2018-11-05T20:09:31.407Z,100254.67
2018-11-05T20:12:02.120Z,100266.50
2018-11-05T20:14:33.039Z,100261.36
2018-11-05T20:17:04.349Z,100261.03
2018-11-05T20:19:35.107Z,100249.03
2018-11-05T20:22:05.945Z,100251.56
2018-11-05T20:24:37.579Z,100257.88
2018-11-05T20:27:08.142Z,100253.23
2018-11-05T20:29:39.353Z,100250.03
2018-11-05T20:32:10.416Z,100246.02
2018-11-05T20:34:41.402Z,100242.72
2018-11-05T20:37:12.178Z,100242.22
2018-11-05T20:39:43.612Z,100239.73
2018-11-05T20:42:14.482Z,100239.41
2018-11-05T20:44:45.156Z,100242.42
2018-11-05T20:47:16.357Z,100234.75
2018-11-05T20:49:47.400Z,100234.44
2018-11-05T20:52:18.709Z,100231.46
2018-11-05T20:54:49.241Z,100233.83
2018-11-05T20:57:20.055Z,100241.82
2018-11-05T20:59:51.406Z,100239.16
2018-11-05T21:02:22.109Z,100238.84
2018-11-05T21:04:53.197Z,100241.50
2018-11-05T21:07:24.111Z,100239.17
2018-11-05T21:09:55.113Z,100247.52
2018-11-05T21:12:26.405Z,100247.16
2018-11-05T21:14:57.287Z,100239.00
2018-11-05T21:17:28.194Z,100233.20
2018-11-05T21:20:00.398Z,100237.02
2018-11-05T21:22:30.400Z,100233.52
2018-11-05T21:25:01.098Z,100238.66
2018-11-05T21:27:32.496Z,100239.19
2018-11-05T21:30:03.169Z,100230.21
2018-11-05T21:32:37.686Z,100240.01
2018-11-05T21:35:09.323Z,100241.19
2018-11-05T21:37:40.026Z,100242.86
2018-11-05T21:40:11.475Z,100245.33
2018-11-05T21:42:42.152Z,100240.83
2018-11-05T21:45:13.333Z,100240.67
2018-11-05T21:47:44.668Z,100236.34
2018-11-05T21:50:16.484Z,100241.00
2018-11-05T21:52:47.449Z,100237.67
2018-11-05T21:55:17.397Z,100240.66
2018-11-05T21:57:49.148Z,100237.32
2018-11-05T22:00:21.322Z,100227.83
2018-11-05T22:02:57.071Z,100233.47
2018-11-05T22:05:27.156Z,100235.12
2018-11-05T22:07:57.468Z,100239.46
2018-11-05T22:10:27.841Z,100240.13
2018-11-05T22:12:58.303Z,100244.11
2018-11-05T22:15:35.638Z,100244.28
2018-11-05T22:18:06.246Z,100239.95
2018-11-05T22:20:36.222Z,100243.93
2018-11-05T22:23:06.434Z,100230.09
2018-11-05T22:25:36.978Z,100240.22
2018-11-05T22:28:07.373Z,100239.30
2018-11-05T22:30:37.297Z,100240.28
2018-11-05T22:33:09.953Z,100232.95
2018-11-05T22:35:40.120Z,100238.47
2018-11-05T22:38:10.122Z,100238.03
2018-11-05T22:40:40.081Z,100231.25
2018-11-05T22:43:09.944Z,100228.00
2018-11-05T22:45:39.776Z,100229.31
2018-11-05T22:48:09.599Z,100238.97
2018-11-05T22:50:39.448Z,100243.06
2018-11-05T22:53:09.269Z,100241.36
2018-11-05T22:55:39.552Z,100239.34
2018-11-05T22:58:09.413Z,100240.95
2018-11-05T23:00:44.776Z,100234.51
2018-11-05T23:03:19.811Z,100206.02
2018-11-05T23:05:50.117Z,100233.16
2018-11-05T23:08:19.857Z,100231.17
2018-11-05T23:10:49.750Z,100224.19
2018-11-05T23:13:19.848Z,100224.28
2018-11-05T23:15:50.085Z,100225.42
2018-11-05T23:18:19.808Z,100221.56
2018-11-05T23:20:49.794Z,100223.11
2018-11-05T23:23:19.550Z,100225.09
2018-11-05T23:25:49.665Z,100227.27
2018-11-05T23:28:19.439Z,100236.41
2018-11-05T23:30:49.909Z,100241.75
2018-11-05T23:33:21.524Z,100245.62
2018-11-05T23:42:49.143Z,100240.59
2018-11-05T23:45:18.937Z,100250.90
2018-11-05T23:47:49.556Z,100249.89
2018-11-05T23:50:19.584Z,100258.30
2018-11-05T23:52:49.480Z,100256.83
2018-11-05T23:55:19.531Z,100255.33
2018-11-05T23:57:49.616Z,100259.66
